Time;durP1;ratioP1;P1;durP2;ratioP2;P2;SDS_P1;SDS_P2;PMS_P1;PMS_P2;Temp;Humidity;BMP_temperature;BMP_pressure;BME280_temperature;BME280_humidity;BME280_pressure;Samples;Min_cycle;Max_cycle;Signal;HPM_P1;HPM_P2
2021/01/23 00:00:07;;;;;;;1.43;1.33;;;;;;;8.29;61.04;95560.94;8296196;28;20220;-71
2021/01/23 00:04:10;;;;;;;1.30;1.20;;;;;;;8.20;61.13;95583.06;8295958;28;20201;-71
2021/01/23 00:08:11;;;;;;;3.60;1.27;;;;;;;8.23;61.04;95596.56;8341601;23;20287;-77
2021/01/23 00:13:05;;;;;;;1.20;1.10;;;;;;;8.28;60.74;95601.41;8331359;28;20277;-77
2021/01/23 00:17:07;;;;;;;1.55;1.40;;;;;;;8.13;61.08;95629.09;8267985;28;20376;-77
2021/01/23 00:21:10;;;;;;;1.20;1.10;;;;;;;8.34;60.16;95642.19;8267238;28;20667;-77
2021/01/23 00:25:12;;;;;;;1.37;1.27;;;;;;;8.34;60.16;95636.19;8273593;28;20308;-77
2021/01/23 00:29:14;;;;;;;1.43;1.30;;;;;;;8.14;60.70;95633.31;8274099;28;20224;-77
2021/01/23 00:33:16;;;;;;;1.27;1.10;;;;;;;8.32;60.54;95620.00;8273296;28;20758;-77
2021/01/23 00:37:19;;;;;;;1.23;1.00;;;;;;;7.82;61.28;95622.72;8273474;28;20209;-77
2021/01/23 00:41:21;;;;;;;1.20;1.10;;;;;;;7.96;61.03;95630.31;8272952;28;20681;-77
2021/01/23 00:45:22;;;;;;;1.00;1.00;;;;;;;7.89;61.08;95629.09;8273662;28;20630;-77
2021/01/23 00:49:24;;;;;;;0.80;0.80;;;;;;;7.81;61.87;95627.06;8272669;28;20577;-77
2021/01/23 00:53:27;;;;;;;1.30;1.10;;;;;;;7.80;62.10;95625.38;8272050;28;20216;-77
2021/01/23 00:57:29;;;;;;;2.13;1.07;;;;;;;7.81;61.73;95637.34;8272326;28;20214;-77
2021/01/23 01:01:30;;;;;;;2.03;1.13;;;;;;;7.60;62.30;95636.28;8272117;28;20237;-77
2021/01/23 01:05:32;;;;;;;1.20;1.10;;;;;;;7.50;62.49;95632.69;8272015;28;20233;-77
2021/01/23 01:09:35;;;;;;;1.70;1.07;;;;;;;7.55;62.85;95628.06;8272117;28;20549;-77
2021/01/23 01:13:37;;;;;;;1.67;1.10;;;;;;;7.59;62.44;95620.00;8271982;28;20216;-77
2021/01/23 01:17:38;;;;;;;1.80;1.30;;;;;;;7.50;62.75;95619.81;8271583;28;20715;-77
2021/01/23 01:21:42;;;;;;;1.33;1.00;;;;;;;7.38;63.00;95626.63;8270889;28;20232;-77
2021/01/23 01:25:45;;;;;;;1.23;0.90;;;;;;;7.47;62.67;95628.59;8271056;28;20202;-77
2021/01/23 01:29:47;;;;;;;1.20;1.10;;;;;;;7.45;62.67;95638.16;8271673;28;20653;-77
2021/01/23 01:33:49;;;;;;;1.30;1.20;;;;;;;7.99;60.38;95624.09;8267897;28;20440;-77
2021/01/23 01:37:50;;;;;;;1.20;1.10;;;;;;;7.68;61.73;95630.59;8271139;28;20213;-76
2021/01/23 01:41:53;;;;;;;1.07;0.97;;;;;;;7.58;61.78;95623.50;8270884;28;20226;-77
2021/01/23 01:45:55;;;;;;;1.77;1.40;;;;;;;7.33;61.94;95621.81;8271270;28;20581;-77
2021/01/23 01:49:57;;;;;;;2.37;1.30;;;;;;;7.51;61.52;95624.03;8270756;28;20558;-77
2021/01/23 01:53:59;;;;;;;1.33;1.23;;;;;;;7.15;62.30;95629.03;8270331;28;20313;-77
2021/01/23 01:58:02;;;;;;;2.20;1.57;;;;;;;7.19;62.74;95634.78;8270303;28;20213;-77
2021/01/23 02:02:22;;;;;;;1.90;1.43;;;;;;;7.41;61.53;95632.41;8271062;28;20692;-77
2021/01/23 02:06:46;;;;;;;1.60;1.50;;;;;;;7.21;61.96;95641.47;8270545;28;20233;-77
2021/01/23 02:10:55;;;;;;;2.23;1.50;;;;;;;7.32;61.65;95643.34;8265723;28;20213;-79
2021/01/23 02:15:01;;;;;;;1.90;1.43;;;;;;;6.95;62.16;95655.28;8271367;28;20221;-78
2021/01/23 02:19:09;;;;;;;2.20;1.70;;;;;;;7.00;61.99;95663.53;8270262;28;20274;-78
2021/01/23 02:23:16;;;;;;;2.50;1.63;;;;;;;6.78;61.70;95666.72;8271028;28;20222;-79
2021/01/23 02:27:35;;;;;;;1.70;1.60;;;;;;;6.64;62.02;95683.88;8271582;28;20201;-79
2021/01/23 02:31:41;;;;;;;1.40;1.30;;;;;;;6.58;61.74;95686.00;8271122;28;20555;-79
2021/01/23 02:35:43;;;;;;;2.13;1.40;;;;;;;6.39;61.54;95688.94;8270623;28;20676;-79
2021/01/23 02:39:45;;;;;;;1.97;1.30;;;;;;;6.34;61.45;95698.66;8270714;28;20206;-79
2021/01/23 02:43:47;;;;;;;1.47;1.37;;;;;;;6.16;60.91;95700.66;8271689;28;20672;-79
2021/01/23 02:47:50;;;;;;;1.20;1.10;;;;;;;6.08;60.83;95719.13;8271938;28;20695;-78
2021/01/23 02:52:00;;;;;;;1.03;0.93;;;;;;;6.05;60.51;95716.75;8270879;28;20214;-79
2021/01/23 02:56:08;;;;;;;0.80;0.80;;;;;;;6.09;60.72;95719.97;8269313;28;20274;-78
2021/01/23 03:00:11;;;;;;;0.60;0.60;;;;;;;5.87;61.23;95727.22;8269139;28;20201;-78
2021/01/23 03:04:14;;;;;;;0.50;0.50;;;;;;;5.76;61.69;95745.03;8268089;28;20209;-79
2021/01/23 03:08:16;;;;;;;0.50;0.50;;;;;;;5.70;61.76;95742.81;8269576;28;20236;-79
2021/01/23 03:12:18;;;;;;;0.40;0.40;;;;;;;5.55;61.88;95749.69;8267656;28;20202;-78
2021/01/23 03:16:19;;;;;;;0.30;0.30;;;;;;;5.48;62.55;95748.41;8268186;28;20649;-78
2021/01/23 03:20:22;;;;;;;0.27;0.27;;;;;;;5.52;62.13;95755.03;8269205;28;20244;-78
2021/01/23 03:24:24;;;;;;;0.20;0.20;;;;;;;5.52;62.58;95761.91;8267930;28;20583;-78
2021/01/23 03:28:26;;;;;;;0.27;0.27;;;;;;;5.52;62.52;95773.00;8269806;28;20212;-79
2021/01/23 03:32:27;;;;;;;0.20;0.20;;;;;;;5.35;62.32;95780.84;8274834;28;20209;-79
2021/01/23 03:36:30;;;;;;;0.80;0.70;;;;;;;5.16;63.14;95802.47;8274995;28;20271;-80
2021/01/23 03:40:32;;;;;;;0.20;0.20;;;;;;;5.12;63.72;95807.84;8277139;28;20240;-80
2021/01/23 03:44:34;;;;;;;0.13;0.13;;;;;;;5.05;63.77;95809.94;8276541;28;20305;-79
2021/01/23 03:48:35;;;;;;;0.20;0.20;;;;;;;4.83;64.09;95803.44;8275862;28;20210;-80
2021/01/23 03:52:39;;;;;;;0.20;0.20;;;;;;;4.83;64.50;95806.00;8274842;28;20209;-80
2021/01/23 03:56:41;;;;;;;0.30;0.20;;;;;;;4.87;64.03;95819.47;8275163;28;20198;-79
2021/01/23 04:00:43;;;;;;;0.20;0.20;;;;;;;4.70;64.79;95828.97;8281451;28;20699;-80
2021/01/23 04:04:45;;;;;;;0.20;0.20;;;;;;;4.74;64.25;95845.00;8305892;28;20225;-80
2021/01/23 04:08:47;;;;;;;0.20;0.20;;;;;;;4.72;64.74;95854.50;8312392;28;20233;-79
2021/01/23 04:12:49;;;;;;;0.20;0.20;;;;;;;4.46;65.79;95863.63;8309131;28;20209;-79
2021/01/23 04:16:51;;;;;;;0.10;0.10;;;;;;;4.39;65.56;95873.34;8306180;28;20201;-78
2021/01/23 04:20:53;;;;;;;0.20;0.20;;;;;;;4.54;65.67;95878.59;8307237;28;20312;-78
2021/01/23 04:24:55;;;;;;;0.23;0.20;;;;;;;4.63;65.33;95875.53;8305767;28;20558;-78
2021/01/23 04:28:57;;;;;;;0.20;0.20;;;;;;;4.43;66.10;95882.53;8306456;28;20566;-79
2021/01/23 04:32:59;;;;;;;0.20;0.20;;;;;;;4.34;66.60;95893.28;8307510;28;20211;-79
2021/01/23 04:37:01;;;;;;;0.20;0.20;;;;;;;4.45;66.08;95903.78;8307244;28;20804;-79
2021/01/23 04:41:03;;;;;;;0.20;0.20;;;;;;;4.30;66.47;95904.59;8306333;28;20258;-79
2021/01/23 04:45:06;;;;;;;0.30;0.30;;;;;;;4.45;66.08;95906.34;8306588;28;20209;-79
2021/01/23 04:49:08;;;;;;;0.20;0.20;;;;;;;4.25;66.65;95907.41;8306044;28;20212;-79
2021/01/23 04:53:10;;;;;;;0.20;0.20;;;;;;;4.23;66.80;95916.91;8308462;28;20213;-80
2021/01/23 04:57:12;;;;;;;0.20;0.20;;;;;;;4.38;66.59;95907.59;8306448;28;20210;-79
2021/01/23 05:01:15;;;;;;;0.27;0.20;;;;;;;4.28;66.72;95911.53;8308032;28;20688;-79
2021/01/23 05:05:17;;;;;;;0.20;0.20;;;;;;;4.26;66.95;95913.34;8275978;28;20300;-79
2021/01/23 05:09:25;;;;;;;0.20;0.20;;;;;;;4.27;66.53;95909.88;8279956;28;20268;-80
2021/01/23 05:13:28;;;;;;;0.20;0.20;;;;;;;4.23;66.64;95910.94;8305904;28;20211;-79
2021/01/23 05:17:30;;;;;;;0.30;0.30;;;;;;;4.06;67.52;95910.06;8305549;28;20205;-78
2021/01/23 05:21:32;;;;;;;0.73;0.40;;;;;;;4.20;67.25;95926.47;8304219;28;20229;-79
2021/01/23 05:25:36;;;;;;;0.30;0.30;;;;;;;4.36;66.76;95942.72;8303918;28;20653;-79
2021/01/23 05:29:53;;;;;;;0.20;0.20;;;;;;;4.21;66.78;95952.03;8306992;28;20553;-79
2021/01/23 05:33:54;;;;;;;0.27;0.27;;;;;;;4.25;67.25;95960.38;8307432;28;20194;-79
2021/01/23 05:37:56;;;;;;;0.30;0.30;;;;;;;4.31;66.49;95965.19;8304745;28;20237;-79
2021/01/23 05:42:07;;;;;;;0.30;0.30;;;;;;;4.26;66.91;95965.41;8304834;28;20229;-78
2021/01/23 05:46:11;;;;;;;0.30;0.30;;;;;;;4.37;66.92;95980.25;8305465;28;20529;-79
2021/01/23 05:50:13;;;;;;;0.40;0.40;;;;;;;4.45;66.39;95996.03;8298523;28;20243;-79
2021/01/23 05:54:15;;;;;;;0.40;0.40;;;;;;;4.52;66.24;96004.25;8304138;28;20652;-79
2021/01/23 05:58:17;;;;;;;0.50;0.40;;;;;;;4.56;66.10;96003.19;8304411;28;20201;-79
2021/01/23 06:02:21;;;;;;;0.40;0.40;;;;;;;4.46;66.06;96005.41;8303569;28;20225;-79
2021/01/23 06:06:22;;;;;;;0.60;0.50;;;;;;;4.79;65.03;96019.13;8304755;28;20236;-79
2021/01/23 06:10:38;;;;;;;0.30;0.30;;;;;;;4.79;64.92;96045.59;8304675;28;20201;-79
2021/01/23 06:14:40;;;;;;;0.40;0.40;;;;;;;4.95;64.65;96061.03;8303410;28;20229;-79
2021/01/23 06:18:43;;;;;;;0.43;0.43;;;;;;;4.82;64.82;96070.28;8306600;28;20663;-79
2021/01/23 06:22:54;;;;;;;0.50;0.30;;;;;;;5.00;64.25;96073.59;8303951;28;20225;-79
2021/01/23 06:26:59;;;;;;;0.90;0.47;;;;;;;5.05;63.97;96067.31;8304346;28;20201;-79
2021/01/23 06:31:26;;;;;;;0.40;0.40;;;;;;;4.76;64.58;96083.38;8302003;28;20209;-79
2021/01/23 06:35:29;;;;;;;0.33;0.33;;;;;;;5.01;64.37;96096.63;8302477;28;20276;-78
2021/01/23 06:39:33;;;;;;;0.87;0.40;;;;;;;5.16;63.86;96107.81;8302433;28;20205;-78
2021/01/23 06:43:34;;;;;;;0.53;0.40;;;;;;;4.92;64.14;96109.09;8310524;28;20236;-80
2021/01/23 06:47:38;;;;;;;0.40;0.40;;;;;;;4.86;64.28;96108.50;8309312;28;20216;-79
2021/01/23 06:51:41;;;;;;;0.40;0.40;;;;;;;5.16;63.58;96119.81;8302016;28;20275;-79
2021/01/23 06:55:50;;;;;;;0.50;0.40;;;;;;;5.15;63.68;96125.88;8300570;28;20213;-78
2021/01/23 06:59:52;;;;;;;0.50;0.50;;;;;;;5.23;63.77;96133.97;8301088;28;20193;-78
2021/01/23 07:03:55;;;;;;;0.50;0.50;;;;;;;5.06;63.68;96139.97;8300970;28;20231;-78
2021/01/23 07:07:58;;;;;;;0.50;0.50;;;;;;;5.09;63.91;96134.69;8301949;28;20248;-79
2021/01/23 07:11:59;;;;;;;0.60;0.60;;;;;;;5.01;63.97;96135.09;8300751;28;20209;-78
2021/01/23 07:16:01;;;;;;;0.50;0.50;;;;;;;5.17;63.50;96144.56;8302435;28;20201;-78
2021/01/23 07:20:06;;;;;;;0.70;0.70;;;;;;;5.26;63.48;96152.63;8306888;28;20208;-80
2021/01/23 07:24:10;;;;;;;0.87;0.80;;;;;;;5.26;63.21;96159.50;8301091;28;20578;-80
2021/01/23 07:28:17;;;;;;;0.70;0.70;;;;;;;5.34;63.34;96164.22;8236503;28;20226;-78
2021/01/23 07:32:19;;;;;;;1.20;0.90;;;;;;;5.37;63.00;96164.06;8236936;28;20656;-79
2021/01/23 07:36:34;;;;;;;0.90;0.90;;;;;;;5.36;62.97;96172.69;8235815;28;20206;-78
2021/01/23 07:40:39;;;;;;;1.10;1.00;;;;;;;5.47;62.42;96175.53;8235703;28;20213;-77
2021/01/23 07:44:41;;;;;;;1.10;1.00;;;;;;;5.47;62.94;96183.22;8264000;28;20213;-77
2021/01/23 07:48:44;;;;;;;1.13;1.00;;;;;;;5.50;62.75;96188.19;8267403;28;20216;-77
2021/01/23 07:52:46;;;;;;;1.30;1.20;;;;;;;5.62;62.08;96197.00;8267779;28;20233;-79
2021/01/23 07:56:53;;;;;;;1.17;1.17;;;;;;;5.51;62.59;96194.16;8267509;28;20202;-79
2021/01/23 08:00:55;;;;;;;1.77;1.30;;;;;;;5.45;62.52;96196.13;8267047;28;20190;-78
2021/01/23 08:04:57;;;;;;;1.50;1.40;;;;;;;5.59;62.20;96192.84;8272871;28;20703;-79
2021/01/23 08:09:17;;;;;;;1.40;1.30;;;;;;;5.65;62.39;96204.53;8292886;28;20683;-78
2021/01/23 08:13:23;;;;;;;1.80;1.70;;;;;;;5.74;62.15;96204.03;8299614;28;20567;-78
2021/01/23 08:17:43;;;;;;;1.97;1.70;;;;;;;5.84;61.44;96200.06;8297073;28;20220;-78
2021/01/23 08:22:05;;;;;;;1.90;1.67;;;;;;;5.77;61.46;96206.47;8275322;28;20324;-78
2021/01/23 08:26:07;;;;;;;1.80;1.70;;;;;;;5.80;61.17;96203.72;8301287;28;20525;-78
2021/01/23 08:30:12;;;;;;;2.43;2.20;;;;;;;5.82;61.04;96204.44;8281314;28;20248;-78
2021/01/23 08:34:15;;;;;;;2.20;2.00;;;;;;;5.81;61.20;96210.50;8283813;28;20218;-78
2021/01/23 08:38:16;;;;;;;2.53;2.03;;;;;;;5.76;61.08;96214.25;8298536;28;20201;-78
2021/01/23 08:42:24;;;;;;;2.83;2.20;;;;;;;5.92;61.04;96211.66;8298721;28;20229;-78
2021/01/23 08:46:27;;;;;;;4.03;2.30;;;;;;;5.98;61.04;96212.22;8290706;28;20205;-78
2021/01/23 08:50:28;;;;;;;2.83;2.53;;;;;;;6.09;60.48;96209.03;8275884;28;20201;-78
2021/01/23 08:54:30;;;;;;;4.17;3.77;;;;;;;6.17;60.65;96203.47;8274906;28;20564;-79
2021/01/23 08:58:32;;;;;;;4.33;3.00;;;;;;;6.26;60.00;96210.69;8299177;28;20231;-78
2021/01/23 09:02:34;;;;;;;3.57;3.27;;;;;;;6.32;59.78;96210.38;8299481;28;20231;-78
2021/01/23 09:06:38;;;;;;;5.37;4.67;;;;;;;6.49;60.01;96218.88;8305018;28;20692;-78
2021/01/23 09:10:39;;;;;;;7.17;6.10;;;;;;;6.43;59.59;96225.19;8298480;28;20198;-77
2021/01/23 09:14:41;;;;;;;5.77;5.13;;;;;;;6.61;59.17;96224.19;8275825;28;20206;-78
2021/01/23 09:18:44;;;;;;;9.07;7.77;;;;;;;6.68;59.31;96236.69;8271072;28;20200;-78
2021/01/23 09:22:46;;;;;;;7.70;5.87;;;;;;;6.64;59.04;96233.44;8270731;28;20229;-77
2021/01/23 09:26:47;;;;;;;7.50;6.70;;;;;;;6.47;59.48;96231.81;8271180;28;20546;-78
2021/01/23 09:30:49;;;;;;;10.00;8.97;;;;;;;6.60;59.48;96234.53;8274833;28;20237;-77
2021/01/23 09:34:54;;;;;;;7.90;7.20;;;;;;;6.62;59.13;96245.56;8274555;28;20197;-78
2021/01/23 09:38:56;;;;;;;7.70;6.90;;;;;;;6.69;59.19;96246.91;8274331;28;20247;-78
2021/01/23 09:42:57;;;;;;;8.57;7.77;;;;;;;6.63;59.78;96239.53;8275377;28;20217;-77
2021/01/23 09:46:59;;;;;;;9.07;8.17;;;;;;;6.69;59.56;96235.78;8284301;28;20193;-77
2021/01/23 09:51:02;;;;;;;9.70;8.73;;;;;;;6.68;59.89;96239.25;8279068;28;20256;-76
2021/01/23 09:55:06;;;;;;;9.90;8.93;;;;;;;6.70;59.31;96240.84;8237989;28;20204;-77
2021/01/23 09:59:08;;;;;;;10.80;9.70;;;;;;;6.61;59.75;96234.47;8252193;28;20292;-77
2021/01/23 10:03:10;;;;;;;12.27;11.00;;;;;;;6.69;59.81;96240.94;8282242;28;20218;-77
2021/01/23 10:07:13;;;;;;;14.47;12.97;;;;;;;6.72;59.64;96227.88;8297588;28;20707;-77
2021/01/23 10:11:15;;;;;;;17.07;13.30;;;;;;;6.89;59.61;96229.50;8302188;28;20229;-78
2021/01/23 10:15:16;;;;;;;13.23;11.83;;;;;;;6.82;59.46;96236.75;8301370;28;20197;-78
2021/01/23 10:19:18;;;;;;;13.30;11.60;;;;;;;6.78;59.55;96233.50;8302018;28;20208;-77
2021/01/23 10:23:21;;;;;;;11.90;10.70;;;;;;;6.83;59.83;96223.81;8301761;28;20603;-77
2021/01/23 10:27:24;;;;;;;13.57;11.00;;;;;;;6.87;59.59;96215.88;8301864;28;20201;-76
2021/01/23 10:31:26;;;;;;;12.37;11.07;;;;;;;6.92;59.49;96211.31;8301022;28;20193;-77
2021/01/23 10:35:28;;;;;;;11.67;10.47;;;;;;;7.13;59.12;96201.50;8301430;28;20197;-77
2021/01/23 10:39:31;;;;;;;12.30;10.97;;;;;;;7.01;59.49;96203.88;8298032;28;20229;-77
2021/01/23 10:43:32;;;;;;;17.40;15.60;;;;;;;6.99;59.69;96189.47;8301139;28;20225;-77
2021/01/23 10:47:35;;;;;;;12.80;11.50;;;;;;;6.93;59.98;96188.06;8301084;28;20204;-77
2021/01/23 10:51:37;;;;;;;12.97;11.70;;;;;;;7.03;59.35;96176.31;8301252;28;20205;-77
2021/01/23 10:55:39;;;;;;;14.13;11.10;;;;;;;7.07;59.48;96176.13;8300580;28;20197;-77
2021/01/23 10:59:41;;;;;;;12.63;11.33;;;;;;;7.29;59.07;96166.22;8300958;28;20580;-78
2021/01/23 11:03:43;;;;;;;11.43;10.17;;;;;;;7.27;58.56;96164.66;8300851;28;20221;-77
2021/01/23 11:07:45;;;;;;;11.97;10.27;;;;;;;7.24;59.00;96169.06;8300568;28;20233;-77
2021/01/23 11:11:47;;;;;;;11.97;10.27;;;;;;;6.96;58.59;96161.31;8301447;28;20205;-77
2021/01/23 11:15:49;;;;;;;11.23;9.30;;;;;;;7.21;58.34;96150.38;8301531;28;20205;-77
2021/01/23 11:19:51;;;;;;;10.27;9.27;;;;;;;7.55;57.77;96144.03;8300442;28;20196;-77
2021/01/23 11:23:53;;;;;;;10.53;9.43;;;;;;;7.58;57.06;96150.75;8300191;28;20248;-77
2021/01/23 11:27:58;;;;;;;10.07;9.07;;;;;;;7.73;57.47;96143.81;8300107;28;20203;-77
2021/01/23 11:32:00;;;;;;;10.10;9.10;;;;;;;7.77;57.35;96140.16;8300078;28;20209;-78
2021/01/23 11:36:02;;;;;;;10.73;8.90;;;;;;;7.94;56.14;96139.91;8300201;28;20208;-77
2021/01/23 11:40:05;;;;;;;10.80;9.77;;;;;;;7.96;56.06;96140.66;8299602;28;20204;-78
2021/01/23 11:44:08;;;;;;;11.53;10.37;;;;;;;7.96;55.89;96138.06;8301196;28;20237;-78
2021/01/23 11:48:10;;;;;;;11.10;10.00;;;;;;;7.85;55.73;96137.09;8299629;28;20197;-77
2021/01/23 11:52:12;;;;;;;12.67;11.47;;;;;;;7.86;56.92;96131.00;8300049;28;20619;-77
2021/01/23 11:56:14;;;;;;;11.27;9.60;;;;;;;8.07;55.59;96137.38;8299510;28;20201;-77
2021/01/23 12:00:19;;;;;;;9.60;8.70;;;;;;;7.79;56.50;96125.41;8299243;28;20232;-78
2021/01/23 12:04:21;;;;;;;11.23;10.10;;;;;;;7.80;55.87;96127.06;8265911;28;20237;-78
2021/01/23 12:08:23;;;;;;;9.87;8.97;;;;;;;7.96;55.71;96120.03;8266711;28;20242;-78
2021/01/23 12:12:25;;;;;;;11.50;10.30;;;;;;;7.99;56.36;96112.06;8270974;28;20209;-78
2021/01/23 12:16:27;;;;;;;13.00;9.77;;;;;;;7.85;56.16;96099.25;8298937;28;20255;-77
2021/01/23 12:20:30;;;;;;;11.53;8.73;;;;;;;7.90;55.79;96098.94;8304688;28;20251;-77
2021/01/23 12:24:32;;;;;;;10.67;9.03;;;;;;;8.01;55.77;96087.06;8305312;28;20225;-78
2021/01/23 12:28:34;;;;;;;10.20;8.17;;;;;;;7.98;55.44;96083.84;8306759;28;20605;-77
2021/01/23 12:32:37;;;;;;;8.60;7.70;;;;;;;8.06;55.49;96075.63;8283188;28;20209;-78
2021/01/23 12:36:39;;;;;;;10.43;7.70;;;;;;;7.81;54.98;96072.84;8305437;28;20201;-78
2021/01/23 12:40:41;;;;;;;9.00;8.10;;;;;;;7.83;56.22;96078.72;8302175;28;20600;-78
2021/01/23 12:44:42;;;;;;;11.13;8.53;;;;;;;7.92;61.21;96082.47;8294683;28;20229;-78
2021/01/23 12:48:45;;;;;;;9.03;8.07;;;;;;;7.91;56.70;96085.97;8273696;28;20209;-79
2021/01/23 12:52:47;;;;;;;9.03;8.10;;;;;;;7.67;58.67;96072.06;8279205;28;20202;-79
2021/01/23 12:56:50;;;;;;;11.60;10.40;;;;;;;7.66;58.00;96073.00;8303147;28;20196;-79
2021/01/23 13:00:52;;;;;;;11.60;10.07;;;;;;;7.55;59.02;96074.47;8307155;28;20197;-79
2021/01/23 13:04:57;;;;;;;9.57;8.47;;;;;;;7.63;58.03;96071.41;8305345;28;20301;-79
2021/01/23 13:08:58;;;;;;;10.83;9.73;;;;;;;7.48;58.87;96068.03;8306223;28;20221;-79
2021/01/23 13:13:00;;;;;;;10.70;9.20;;;;;;;7.47;58.62;96063.84;8307662;28;20248;-79
2021/01/23 13:17:02;;;;;;;9.60;7.30;;;;;;;7.40;57.05;96058.22;8307915;28;20205;-79
2021/01/23 13:21:05;;;;;;;11.23;9.83;;;;;;;7.46;58.39;96059.59;8307016;28;20197;-79
2021/01/23 13:25:09;;;;;;;10.13;7.97;;;;;;;7.43;57.64;96052.91;8288525;28;20240;-78
2021/01/23 13:29:11;;;;;;;7.83;5.50;;;;;;;7.49;56.77;96051.69;8271502;28;20232;-78
2021/01/23 13:33:13;;;;;;;11.00;9.90;;;;;;;7.53;57.80;96050.56;8273713;28;20248;-79
2021/01/23 13:37:17;;;;;;;8.97;7.30;;;;;;;7.45;57.42;96050.22;8272354;28;20316;-78
2021/01/23 13:41:19;;;;;;;9.23;7.27;;;;;;;7.45;59.11;96052.81;8275497;28;20225;-78
2021/01/23 13:45:21;;;;;;;11.10;9.40;;;;;;;7.33;58.17;96056.97;8309014;28;20247;-79
2021/01/23 13:49:23;;;;;;;11.37;9.40;;;;;;;7.30;58.37;96053.75;8315457;28;20201;-79
2021/01/23 13:53:25;;;;;;;10.87;8.60;;;;;;;7.39;57.69;96050.63;8324041;28;20212;-79
2021/01/23 13:57:27;;;;;;;10.03;7.83;;;;;;;6.85;58.72;96052.16;8302220;28;20221;-79
2021/01/23 14:01:29;;;;;;;9.63;8.20;;;;;;;7.11;58.67;96048.91;8314326;28;20208;-80
2021/01/23 14:05:31;;;;;;;12.17;10.97;;;;;;;7.26;58.30;96054.88;8313374;28;20241;-81
2021/01/23 14:09:34;;;;;;;17.37;12.93;;;;;;;6.75;59.78;96056.16;8314107;28;20231;-80
2021/01/23 14:13:36;;;;;;;12.10;10.50;;;;;;;6.65;60.06;96055.88;8311918;28;20201;-79
2021/01/23 14:17:38;;;;;;;8.57;7.60;;;;;;;6.30;62.14;96055.34;8302008;28;20198;-78
2021/01/23 14:21:40;;;;;;;9.00;8.10;;;;;;;6.74;60.65;96054.53;8295357;28;20197;-76
2021/01/23 14:25:42;;;;;;;10.00;7.30;;;;;;;7.42;63.00;96058.13;8303572;28;20225;-78
2021/01/23 14:29:46;;;;;;;10.70;8.13;;;;;;;7.18;59.84;96048.44;8301887;28;20225;-78
2021/01/23 14:33:47;;;;;;;9.70;7.50;;;;;;;8.32;56.13;96045.53;8302462;28;20232;-77
2021/01/23 14:37:49;;;;;;;9.57;8.20;;;;;;;7.38;58.51;96049.75;8301600;28;20201;-77
2021/01/23 14:41:52;;;;;;;15.13;9.53;;;;;;;7.08;60.26;96051.66;8301018;28;20208;-77
2021/01/23 14:45:53;;;;;;;17.00;10.50;;;;;;;6.79;60.24;96049.91;8302191;28;20206;-77
2021/01/23 14:49:55;;;;;;;13.00;10.87;;;;;;;6.77;60.63;96054.31;8301527;28;20641;-77
2021/01/23 14:53:57;;;;;;;16.03;11.43;;;;;;;6.42;61.60;96043.56;8301262;28;20574;-77
2021/01/23 14:57:59;;;;;;;11.00;9.87;;;;;;;6.71;60.82;96046.16;8301526;28;20205;-76
2021/01/23 15:02:01;;;;;;;13.20;9.37;;;;;;;6.68;60.41;96042.00;8301132;28;20224;-77
2021/01/23 15:06:05;;;;;;;13.53;10.27;;;;;;;6.36;61.10;96029.31;8301420;28;20663;-77
2021/01/23 15:10:08;;;;;;;12.37;10.03;;;;;;;6.51;61.18;96031.91;8302552;28;20197;-77
2021/01/23 15:14:11;;;;;;;14.10;12.40;;;;;;;6.69;60.51;96033.38;8301665;28;20215;-77
2021/01/23 15:18:13;;;;;;;14.43;11.17;;;;;;;6.61;60.55;96022.72;8300413;28;20288;-77
2021/01/23 15:22:15;;;;;;;11.43;9.93;;;;;;;6.68;60.52;96026.56;8300480;28;20225;-77
2021/01/23 15:26:17;;;;;;;11.67;10.00;;;;;;;6.66;60.45;96028.41;8300162;28;20205;-77
2021/01/23 15:30:21;;;;;;;14.47;10.43;;;;;;;6.60;60.74;96023.63;8282819;28;20194;-76
2021/01/23 15:34:22;;;;;;;12.27;9.97;;;;;;;6.16;62.50;96017.59;8299187;28;20211;-76
2021/01/23 15:38:24;;;;;;;15.80;12.50;;;;;;;6.19;62.26;96011.47;8299716;28;20201;-76
2021/01/23 15:42:26;;;;;;;15.53;13.93;;;;;;;6.47;61.65;96015.81;8296782;28;20225;-77
2021/01/23 15:46:28;;;;;;;17.67;14.27;;;;;;;6.24;61.58;96010.31;8299444;28;20197;-77
2021/01/23 15:50:30;;;;;;;17.23;15.33;;;;;;;6.26;62.28;96008.47;8299638;28;20199;-77
2021/01/23 15:54:32;;;;;;;18.70;16.27;;;;;;;6.33;62.48;96008.91;8303659;28;20208;-77
2021/01/23 15:58:34;;;;;;;22.17;17.50;;;;;;;6.51;61.59;96004.44;8305908;28;20205;-77
2021/01/23 16:02:37;;;;;;;20.30;16.60;;;;;;;6.50;61.48;96007.09;8305589;28;20254;-77
2021/01/23 16:06:39;;;;;;;24.27;18.03;;;;;;;6.45;61.54;96004.78;8305156;28;20315;-77
2021/01/23 16:10:41;;;;;;;18.73;16.57;;;;;;;6.26;62.58;96002.47;8306084;28;20653;-77
2021/01/23 16:14:42;;;;;;;19.80;16.50;;;;;;;6.15;63.08;95997.97;8305731;28;20201;-77
2021/01/23 16:18:45;;;;;;;22.17;18.03;;;;;;;6.14;63.16;96006.59;8305847;28;20259;-77
2021/01/23 16:22:47;;;;;;;19.40;16.30;;;;;;;6.33;62.78;96003.78;8305256;28;20220;-77
2021/01/23 16:26:49;;;;;;;19.63;15.70;;;;;;;6.43;62.65;95997.16;8305740;28;20209;-77
2021/01/23 16:30:51;;;;;;;20.10;16.60;;;;;;;6.16;63.30;95991.91;8304955;28;20228;-77
2021/01/23 16:34:53;;;;;;;17.77;15.97;;;;;;;6.10;63.37;95978.59;8305025;28;20224;-77
2021/01/23 16:38:55;;;;;;;21.33;16.50;;;;;;;6.16;63.22;95976.47;8305416;28;20189;-77
2021/01/23 16:42:56;;;;;;;19.00;15.73;;;;;;;5.92;63.86;95957.31;8304864;28;20236;-77
2021/01/23 16:46:58;;;;;;;20.57;14.10;;;;;;;5.44;65.52;95942.03;8305673;28;20591;-77
2021/01/23 16:51:01;;;;;;;17.27;13.40;;;;;;;4.94;67.18;95943.09;8305208;28;20288;-77
2021/01/23 16:55:03;;;;;;;15.40;13.80;;;;;;;4.86;67.53;95946.09;8305044;28;20213;-77
2021/01/23 16:59:06;;;;;;;17.87;13.47;;;;;;;5.00;67.05;95950.47;8305399;28;20618;-76
2021/01/23 17:03:07;;;;;;;16.00;14.30;;;;;;;4.90;67.64;95932.19;8303948;28;20692;-77
2021/01/23 17:07:10;;;;;;;17.53;14.17;;;;;;;4.67;67.89;95930.84;8304894;28;20645;-77
2021/01/23 17:11:12;;;;;;;16.47;13.70;;;;;;;4.66;68.21;95931.75;8305085;28;20205;-77
2021/01/23 17:15:15;;;;;;;18.90;14.40;;;;;;;4.80;68.02;95931.84;8304924;28;20205;-77
2021/01/23 17:19:16;;;;;;;20.80;17.17;;;;;;;4.85;67.69;95934.16;8303829;28;20228;-77
2021/01/23 17:23:19;;;;;;;18.37;15.30;;;;;;;5.01;67.13;95940.13;8304707;28;20232;-77
2021/01/23 17:27:21;;;;;;;15.77;14.03;;;;;;;5.40;65.71;95925.97;8304374;28;20197;-77
2021/01/23 17:31:23;;;;;;;17.57;13.67;;;;;;;5.10;66.01;95931.09;8303847;28;20205;-77
2021/01/23 17:35:24;;;;;;;16.00;13.43;;;;;;;5.38;65.22;95925.25;8304905;28;20204;-77
2021/01/23 17:39:31;;;;;;;18.87;15.27;;;;;;;5.21;65.27;95915.91;8304537;28;20225;-77
2021/01/23 17:43:33;;;;;;;20.23;17.70;;;;;;;5.22;65.22;95898.81;8304073;28;20628;-77
2021/01/23 17:47:34;;;;;;;22.13;17.47;;;;;;;5.22;65.31;95903.94;8303665;28;20213;-78
2021/01/23 17:51:36;;;;;;;20.17;17.97;;;;;;;5.11;64.81;95896.81;8303200;28;20221;-78
2021/01/23 17:55:40;;;;;;;18.17;16.17;;;;;;;5.13;65.27;95900.13;8300405;28;20197;-78
2021/01/23 17:59:45;;;;;;;19.77;17.73;;;;;;;5.35;63.81;95909.19;8302565;28;20300;-78
2021/01/23 18:03:47;;;;;;;21.83;19.53;;;;;;;5.28;63.73;95904.41;8303138;28;20225;-77
2021/01/23 18:07:49;;;;;;;21.60;19.13;;;;;;;5.19;64.39;95902.34;8303698;28;20244;-78
2021/01/23 18:11:52;;;;;;;23.63;19.87;;;;;;;5.40;63.66;95894.38;8302776;28;20420;-79
2021/01/23 18:15:54;;;;;;;24.70;22.10;;;;;;;5.00;64.53;95888.91;8305950;28;20213;-79
2021/01/23 18:19:56;;;;;;;22.70;20.33;;;;;;;4.62;65.88;95861.03;8302068;28;20205;-78
2021/01/23 18:23:57;;;;;;;24.03;21.53;;;;;;;4.39;66.84;95857.16;8294559;28;20228;-78
2021/01/23 18:28:00;;;;;;;21.70;19.40;;;;;;;4.60;65.99;95856.00;8302411;28;20213;-78
2021/01/23 18:32:02;;;;;;;18.53;16.47;;;;;;;4.33;66.30;95845.50;8303294;28;20197;-78
2021/01/23 18:36:05;;;;;;;18.83;16.33;;;;;;;4.27;66.38;95853.50;8306383;28;20201;-78
2021/01/23 18:40:08;;;;;;;164.17;47.57;;;;;;;7.03;89.82;95857.16;8312116;28;20247;-79
2021/01/23 18:44:10;;;;;;;24.40;16.30;;;;;;;6.78;61.88;95841.66;8313422;28;20601;-79
2021/01/23 18:48:12;;;;;;;17.63;14.43;;;;;;;7.24;58.43;95826.63;8315405;28;20295;-80
2021/01/23 18:52:16;;;;;;;16.27;14.63;;;;;;;6.19;59.83;95829.81;8305875;28;20201;-78
2021/01/23 18:56:18;;;;;;;16.50;14.80;;;;;;;5.57;61.25;95844.63;8302153;28;20249;-76
2021/01/23 19:00:22;;;;;;;17.20;15.50;;;;;;;5.28;62.26;95837.69;8300423;28;20205;-78
2021/01/23 19:04:23;;;;;;;19.77;17.67;;;;;;;4.97;63.51;95830.91;8300153;28;20236;-78
2021/01/23 19:08:25;;;;;;;18.70;16.80;;;;;;;5.00;63.29;95828.16;8318144;28;20229;-78